地図

経路データ

SID SEASON NUMBER BASIN SUBBASIN NAME ISO_TIME NATURE LAT LON WMO_WIND WMO_PRES WMO_AGENCY TRACK_TYPE DIST2LAND LANDFALL IFLAG USA_AGENCY USA_ATCF_ID USA_LAT USA_LON USA_RECORD USA_STATUS USA_WIND USA_PRES USA_SSHS USA_R34_NE USA_R34_SE USA_R34_SW USA_R34_NW USA_R50_NE USA_R50_SE USA_R50_SW USA_R50_NW USA_R64_NE USA_R64_SE USA_R64_SW USA_R64_NW USA_POCI USA_ROCI USA_RMW USA_EYE TOKYO_LAT TOKYO_LON TOKYO_GRADE TOKYO_WIND TOKYO_PRES TOKYO_R50_DIR TOKYO_R50_LONG TOKYO_R50_SHORT TOKYO_R30_DIR TOKYO_R30_LONG TOKYO_R30_SHORT TOKYO_LAND CMA_LAT CMA_LON CMA_CAT CMA_WIND CMA_PRES HKO_LAT HKO_LON HKO_CAT HKO_WIND HKO_PRES NEWDELHI_LAT NEWDELHI_LON NEWDELHI_GRADE NEWDELHI_WIND NEWDELHI_PRES NEWDELHI_CI NEWDELHI_DP NEWDELHI_POCI REUNION_LAT REUNION_LON REUNION_TYPE REUNION_WIND REUNION_PRES REUNION_TNUM REUNION_CI REUNION_RMW REUNION_R34_NE REUNION_R34_SE REUNION_R34_SW REUNION_R34_NW REUNION_R50_NE REUNION_R50_SE REUNION_R50_SW REUNION_R50_NW REUNION_R64_NE REUNION_R64_SE REUNION_R64_SW REUNION_R64_NW BOM_LAT BOM_LON BOM_TYPE BOM_WIND BOM_PRES BOM_TNUM BOM_CI BOM_RMW BOM_R34_NE BOM_R34_SE BOM_R34_SW BOM_R34_NW BOM_R50_NE BOM_R50_SE BOM_R50_SW BOM_R50_NW BOM_R64_NE BOM_R64_SE BOM_R64_SW BOM_R64_NW BOM_ROCI BOM_POCI BOM_EYE BOM_POS_METHOD BOM_PRES_METHOD NADI_LAT NADI_LON NADI_CAT NADI_WIND NADI_PRES WELLINGTON_LAT WELLINGTON_LON WELLINGTON_WIND WELLINGTON_PRES DS824_LAT DS824_LON DS824_STAGE DS824_WIND DS824_PRES TD9636_LAT TD9636_LON TD9636_STAGE TD9636_WIND TD9636_PRES TD9635_LAT TD9635_LON TD9635_WIND TD9635_PRES TD9635_ROCI NEUMANN_LAT NEUMANN_LON NEUMANN_CLASS NEUMANN_WIND NEUMANN_PRES MLC_LAT MLC_LON MLC_CLASS MLC_WIND MLC_PRES USA_GUST BOM_GUST BOM_GUST_PER REUNION_GUST REUNION_GUST_PER USA_SEAHGT USA_SEARAD_NE USA_SEARAD_SE USA_SEARAD_SW USA_SEARAD_NW STORM_SPEED STORM_DIR
1870300N14283 1870 28 NA CS NOT_NAMED 1870-10-27 00:00:00 TS 13.6000 -77.0000 main 363 363 _____________O -1 13.6000 -77.0000 TS 35 8 320
1870300N14283 1870 28 NA CS NOT_NAMED 1870-10-27 03:00:00 TS 13.8951 -77.2499 main 403 393 _____________P -1 13.8951 -77.2499 TS 35 8 321
1870300N14283 1870 28 NA CS NOT_NAMED 1870-10-27 06:00:00 TS 14.2000 -77.5000 main 393 362 _____________O -1 14.2000 -77.5000 TS 35 8 322
1870300N14283 1870 28 NA CS NOT_NAMED 1870-10-27 09:00:00 TS 14.5150 -77.7500 main 363 335 _____________P -1 14.5150 -77.7500 TS 37 8 321
1870300N14283 1870 28 NA CS NOT_NAMED 1870-10-27 12:00:00 TS 14.8000 -78.0000 main 335 320 _____________O -1 14.8000 -78.0000 TS 40 7 315
1870300N14283 1870 28 NA CS NOT_NAMED 1870-10-27 15:00:00 TS 15.0150 -78.2576 main 324 307 _____________P -1 15.0150 -78.2576 TS 42 6 310
1870300N14283 1870 28 NA CS NOT_NAMED 1870-10-27 18:00:00 TS 15.2000 -78.5000 main 312 299 _____________O -1 15.2000 -78.5000 TS 45 6 311
1870300N14283 1870 28 NA CS NOT_NAMED 1870-10-27 21:00:00 TS 15.3924 -78.7001 main 299 287 _____________P -1 15.3924 -78.7001 TS 47 6 316
1870300N14283 1870 28 NA CS NOT_NAMED 1870-10-28 00:00:00 TS 15.6000 -78.9000 main 287 272 _____________O -1 15.6000 -78.9000 TS 50 6 317
1870300N14283 1870 28 NA CS NOT_NAMED 1870-10-28 03:00:00 TS 15.8500 -79.1500 main 267 257 _____________P -1 15.8500 -79.1500 TS 50 7 316
1870300N14283 1870 28 NA CS NOT_NAMED 1870-10-28 06:00:00 TS 16.1000 -79.4000 main 257 247 _____________O -1 16.1000 -79.4000 TS 50 6 316
1870300N14283 1870 28 NA CS NOT_NAMED 1870-10-28 09:00:00 TS 16.3000 -79.6076 main 247 241 _____________P -1 16.3000 -79.6076 TS 50 6 316
1870300N14283 1870 28 NA CS NOT_NAMED 1870-10-28 12:00:00 TS 16.5000 -79.8000 main 241 231 _____________O -1 16.5000 -79.8000 TS 50 6 320
1870300N14283 1870 28 NA CS NOT_NAMED 1870-10-28 15:00:00 TS 16.7425 -80.0000 main 238 230 _____________P -1 16.7425 -80.0000 TS 50 6 322
1870300N14283 1870 28 NA CS NOT_NAMED 1870-10-28 18:00:00 TS 17.0000 -80.2000 main 233 227 _____________O -1 17.0000 -80.2000 TS 50 6 323
1870300N14283 1870 28 NA CS NOT_NAMED 1870-10-28 21:00:00 TS 17.2500 -80.4000 main 239 234 _____________P -1 17.2500 -80.4000 TS 50 6 323
1870300N14283 1870 28 NA CS NOT_NAMED 1870-10-29 00:00:00 TS 17.5000 -80.6000 main 245 242 _____________O -1 17.5000 -80.6000 TS 50 6 323
1870300N14283 1870 28 NA CS NOT_NAMED 1870-10-29 03:00:00 TS 17.7500 -80.8001 main 260 257 _____________P -1 17.7500 -80.8001 TS 50 6 323
1870300N14283 1870 28 NA CS NOT_NAMED 1870-10-29 06:00:00 TS 18.0000 -81.0000 main 275 274 _____________O -1 18.0000 -81.0000 TS 50 6 325
1870300N14283 1870 28 NA CS NOT_NAMED 1870-10-29 09:00:00 TS 18.2649 -81.1851 main 295 295 _____________P -1 18.2649 -81.1851 TS 50 6 323
1870300N14283 1870 28 NA CS NOT_NAMED 1870-10-29 12:00:00 TS 18.5000 -81.4000 main 318 318 _____________O -1 18.5000 -81.4000 TS 50 6 310
1870300N14283 1870 28 NA CS NOT_NAMED 1870-10-29 15:00:00 TS 18.6650 -81.6926 main 323 302 _____________P -1 18.6650 -81.6926 TS 50 6 298
1870300N14283 1870 28 NA CS NOT_NAMED 1870-10-29 18:00:00 TS 18.8000 -82.0000 main 302 275 _____________O -1 18.8000 -82.0000 TS 50 6 298
1870300N14283 1870 28 NA CS NOT_NAMED 1870-10-29 21:00:00 TS 18.9499 -82.2576 main 284 281 _____________P -1 18.9499 -82.2576 TS 50 15 254
1870300N14283 1870 28 NA CS NOT_NAMED 1870-10-30 00:00:00 TS 18.4000 -83.5000 60 hurdat_atl main 303 265 O____________O hurdat_atl AL111870 17.0000 -85.5000 TS 60 0 19.1000 -82.5000 TS 50 20 246
1870300N14283 1870 28 NA CS NOT_NAMED 1870-10-30 03:00:00 TS 18.1525 -84.1313 main 265 235 P____________P AL111870 17.0474 -85.5125 TS 60 0 19.2575 -82.7500 TS 50 11 249
1870300N14283 1870 28 NA CS NOT_NAMED 1870-10-30 06:00:00 TS 18.0200 -84.5600 60 hurdat_atl main 235 223 O____________O hurdat_atl AL111870 17.1000 -85.6000 TS 60 0 19.4000 -83.0000 TS 50 8 255
1870300N14283 1870 28 NA CS NOT_NAMED 1870-10-30 09:00:00 TS 17.9384 -84.9500 main 223 223 P____________P AL111870 17.1576 -85.8000 TS 60 0 19.5000 -83.2501 TS 50 6 268
1870300N14283 1870 28 NA CS NOT_NAMED 1870-10-30 12:00:00 TS 18.0000 -85.1667 60 hurdat_atl main 235 235 O____________O hurdat_atl AL111870 17.2000 -86.0000 TS 60 0 19.6000 -83.5000 TS 50 3 288
1870300N14283 1870 28 NA CS NOT_NAMED 1870-10-30 15:00:00 TS 18.0450 -85.2884 main 235 235 P____________P AL111870 17.1924 -86.0575 TS 60 0 19.7500 -83.7500 TS 50 2 295
1870300N14283 1870 28 NA CS NOT_NAMED 1870-10-30 18:00:00 TS 18.1000 -85.4000 60 hurdat_atl main 246 224 O____________O hurdat_atl AL111870 17.2000 -86.1000 TS 60 0 19.9000 -84.0000 TS 50 3 299
1870300N14283 1870 28 NA CS NOT_NAMED 1870-10-30 21:00:00 TS 18.1975 -85.5783 main 224 201 P____________P AL111870 17.2925 -86.2424 TS 65 1 20.0075 -84.2501 TS 50 4 300
1870300N14283 1870 28 NA CS NOT_NAMED 1870-10-31 00:00:00 TS 18.3000 -85.7667 70 hurdat_atl main 201 187 O____________O hurdat_atl AL111870 17.4000 -86.4000 HU 70 1 20.1000 -84.5000 TS 50 4 298
1870300N14283 1870 28 NA CS NOT_NAMED 1870-10-31 03:00:00 TS 18.3666 -85.9167 main 187 167 P____________P AL111870 17.4500 -86.5001 HU 70 1 20.2000 -84.7500 TS 50 3 295
1870300N14283 1870 28 NA CS NOT_NAMED 1870-10-31 06:00:00 TS 18.4333 -86.0667 70 hurdat_atl main 167 154 O____________O hurdat_atl AL111870 17.5000 -86.6000 HU 70 1 20.3000 -85.0000 TS 50 4 297
1870300N14283 1870 28 NA CS NOT_NAMED 1870-10-31 09:00:00 TS 18.5309 -86.2575 main 144 124 P____________P AL111870 17.6075 -86.7499 HU 70 1 20.3775 -85.2726 TS 52 4 274
1870300N14283 1870 28 NA CS NOT_NAMED 1870-10-31 12:00:00 TS 18.4636 -86.5182 70 hurdat_atl main 124 107 O____________O hurdat_atl AL111870 17.7000 -86.9000 HU 70 1 20.5000 -85.5000 TS 55 5 242
1870300N14283 1870 28 NA CS NOT_NAMED 1870-10-31 15:00:00 TS 18.2994 -86.7141 main 110 95 P____________P AL111870 17.6924 -86.9851 HU 70 1 20.7265 -85.6313 TS 57 6 226
1870300N14283 1870 28 NA CS NOT_NAMED 1870-10-31 18:00:00 TS 18.0667 -86.9444 70 hurdat_atl main 95 62 O____________O hurdat_atl AL111870 17.7000 -87.1000 HU 70 1 21.0000 -85.7000 TS 60 8 232
1870300N14283 1870 28 NA CS NOT_NAMED 1870-10-31 21:00:00 TS 17.8351 -87.3499 main 69 30 P_____________ AL111870 17.8351 -87.3499 HU 70 1 TS 6 264
1870300N14283 1870 28 NA CS NOT_NAMED 1870-11-01 00:00:00 TS 18.0000 -87.6000 70 hurdat_atl main 30 15 O_____________ hurdat_atl AL111870 18.0000 -87.6000 HU 70 1 TS 4 307
1870300N14283 1870 28 NA CS NOT_NAMED 1870-11-01 03:00:00 TS 18.0999 -87.7226 main 15 0 P_____________ AL111870 18.0999 -87.7226 HU 70 1 TS 3 316
1870300N14283 1870 28 NA CS NOT_NAMED 1870-11-01 06:00:00 TS 18.2000 -87.8000 70 hurdat_atl main 0 0 O_____________ hurdat_atl AL111870 18.2000 -87.8000 HU 70 1 TS 3 324
1870300N14283 1870 28 NA CS NOT_NAMED 1870-11-01 09:00:00 TS 18.3500 -87.9150 main 0 0 P_____________ AL111870 18.3500 -87.9150 HU 70 1 TS 4 328
1870300N14283 1870 28 NA CS NOT_NAMED 1870-11-01 12:00:00 TS 18.5000 -88.0000 70 hurdat_atl main 0 0 O_____________ hurdat_atl AL111870 18.5000 -88.0000 HU 70 1 TS 3 336
1870300N14283 1870 28 NA CS NOT_NAMED 1870-11-01 15:00:00 TS 18.5850 -88.0225 main 0 0 P_____________ AL111870 18.5850 -88.0225 HU 65 1 TS 2 8
1870300N14283 1870 28 NA CS NOT_NAMED 1870-11-01 18:00:00 TS 18.7000 -88.0000 60 hurdat_atl main 0 0 O_____________ hurdat_atl AL111870 18.7000 -88.0000 TS 60 0 TS 3 7
1870300N14283 1870 28 NA NA NOT_NAMED 1870-11-01 21:00:00 TS 18.9275 -87.9725 main 0 0 P_____________ AL111870 18.9275 -87.9725 TS 55 0 TS 5 11
1870300N14283 1870 28 NA NA NOT_NAMED 1870-11-02 00:00:00 TS 19.2000 -87.9000 50 hurdat_atl main 0 0 O_____________ hurdat_atl AL111870 19.2000 -87.9000 TS 50 0 TS 5 22
1870300N14283 1870 28 NA NA NOT_NAMED 1870-11-02 03:00:00 TS 19.4350 -87.7575 main 0 0 P_____________ AL111870 19.4350 -87.7575 TS 45 0 TS 6 30
1870300N14283 1870 28 NA CS NOT_NAMED 1870-11-02 06:00:00 TS 19.7000 -87.6000 40 hurdat_atl main 10 0 O_____________ hurdat_atl AL111870 19.7000 -87.6000 TS 40 0 TS 6 21
1870300N14283 1870 28 NA CS NOT_NAMED 1870-11-02 09:00:00 TS 20.0124 -87.5147 main 0 0 P_____________ AL111870 20.0124 -87.5147 TS 40 0 TS 7 15
1870300N14283 1870 28 NA NA NOT_NAMED 1870-11-02 12:00:00 TS 20.4000 -87.4000 40 hurdat_atl main 0 0 O_____________ hurdat_atl AL111870 20.4000 -87.4000 TS 40 0 TS 9 20
1870300N14283 1870 28 NA NA NOT_NAMED 1870-11-02 15:00:00 TS 20.8925 -87.1801 main 0 0 P_____________ AL111870 20.8925 -87.1801 TS 45 0 TS 11 25
1870300N14283 1870 28 NA NA NOT_NAMED 1870-11-02 18:00:00 TS 21.4000 -86.9000 50 hurdat_atl main 0 0 O_____________ hurdat_atl AL111870 21.4000 -86.9000 TS 50 0 TS 13 34
1870300N14283 1870 28 NA GM NOT_NAMED 1870-11-02 21:00:00 TS 21.9736 -86.4084 main 83 83 P_____________ AL111870 21.8149 -86.6148 TS 55 0 TS 13 40
1870300N14283 1870 28 NA GM NOT_NAMED 1870-11-03 00:00:00 TS 22.4000 -86.0000 60 hurdat_atl main 117 113 O____________O hurdat_atl AL111870 22.2000 -86.3000 TS 60 0 23.2000 -84.8000 HU 65 11 42
1870300N14283 1870 28 NA GM NOT_NAMED 1870-11-03 03:00:00 TS 22.7555 -85.6500 main 118 118 P____________P AL111870 22.6075 -85.9500 TS 60 0 23.1549 -84.8471 HU 65 9 43
1870300N14283 1870 28 NA GM NOT_NAMED 1870-11-03 06:00:00 TS 23.0333 -85.3667 60 hurdat_atl main 129 128 O____________O hurdat_atl AL111870 23.0000 -85.6000 TS 60 0 23.1000 -84.9000 HU 65 7 39
1870300N14283 1870 28 NA GM NOT_NAMED 1870-11-03 09:00:00 TS 23.2748 -85.1931 main 135 128 P____________P AL111870 23.3722 -85.3221 TS 65 1 23.0800 -84.9349 HU 65 5 41
1870300N14283 1870 28 NA GM NOT_NAMED 1870-11-03 12:00:00 TS 23.4200 -85.0000 70 hurdat_atl main 128 113 O____________O hurdat_atl AL111870 23.7000 -85.0000 HU 70 1 23.0000 -85.0000 HU 65 3 73
1870300N14283 1870 28 NA GM NOT_NAMED 1870-11-03 15:00:00 TS 23.3741 -84.8428 main 113 90 P____________P AL111870 23.9681 -84.5430 HU 70 1 22.7800 -85.1426 HU 65 4 160
1870300N14283 1870 28 NA GM NOT_NAMED 1870-11-03 18:00:00 TS 23.0667 -84.8667 70 hurdat_atl main 98 60 O____________O hurdat_atl AL111870 24.2000 -84.0000 HU 70 1 22.5000 -85.3000 HU 65 12 205
1870300N14283 1870 28 NA GM NOT_NAMED 1870-11-03 21:00:00 TS 22.2500 -85.3999 main 53 52 _____________P AL111870 HU -1 22.2500 -85.3999 HU 62 12 209
1870300N14283 1870 28 NA GM NOT_NAMED 1870-11-04 00:00:00 TS 22.0000 -85.5000 main 52 51 _____________O -1 22.0000 -85.5000 TS 60 6 205
1870300N14283 1870 28 NA CS NOT_NAMED 1870-11-04 03:00:00 TS 21.7500 -85.6500 main 73 73 _____________P -1 21.7500 -85.6500 TS 55 6 209
1870300N14283 1870 28 NA CS NOT_NAMED 1870-11-04 06:00:00 TS 21.5000 -85.8000 main 93 85 _____________O -1 21.5000 -85.8000 TS 50 6 206
1870300N14283 1870 28 NA CS NOT_NAMED 1870-11-04 09:00:00 TS 21.2500 -85.9125 main 83 72 _____________P -1 21.2500 -85.9125 TS 45 5 200
1870300N14283 1870 28 NA CS NOT_NAMED 1870-11-04 12:00:00 TS 21.0000 -86.0000 main 73 _____________O -1 21.0000 -86.0000 TS 40 5 198

IBTrACS Databaseについて

本データベースは、米国NOAAが公開する1842年以降の世界の熱帯低気圧のベストトラックデータアーカイブInternational Best Track Archive for Climate Stewardship (IBTrACS)を、ウェブで閲覧しやすい形式に変換したものです。

最終更新日:2021-10-25